logo
Search for airport 
image banner adimage banner adimage banner ad
image banner ad

EPKUN - Kunice

Located in , Poland

ICAO - , IATA -

Data provided by Airmate  

General information

Coordinates: N52°16'16" E14°39'43"
Elevation is 118 feet MSL.
 
View others Airports in West Pomerania

Operational data

Special qualification required
Current time UTC:
Current local time:
Weather at : EPZG - Zielona Gora/Babimost ( 79 km )
METAR: EPZG 232000Z 08005KT CAVOK 20/14 Q1013
TAF: TAF EPZG 232030Z 2321/2406 08006KT 9999 BKN045 TEMPO 2321/2324 31015G26KT 4000 SHRA BKN030CB PROB40 TEMPO 2321/2323 2500 TSRA BECMG 2400/2402 3000 BR BKN004 BECMG 2403/2405 28012KT 9999 BKN007
View NOTAMs / SUP AIP / TFR affecting this airport [VIEW]
Communications frequencies: [VIEW]

Runways:

RWY identifierQFULength (ft)Width (ft)SurfaceLDA (ft)
10-1°1969164GRASS
28-1°1969164GRASS

Airport contact information

Address: Poland

Satellite view of EPKUN